createdAt,value
2016-07-26T00:00:23.925Z,24.06
2016-07-26T00:01:23.194Z,24.08
2016-07-26T00:02:23.897Z,24.05
2016-07-26T00:04:23.860Z,24.06
2016-07-26T00:05:23.842Z,24.02
2016-07-26T00:06:23.832Z,23.99
2016-07-26T00:07:23.823Z,23.93
2016-07-26T00:08:23.798Z,23.96
2016-07-26T00:09:23.790Z,23.94
2016-07-26T00:10:23.781Z,23.97
2016-07-26T00:11:23.050Z,24
2016-07-26T00:12:23.742Z,23.93
2016-07-26T00:13:23.733Z,24.04
2016-07-26T00:14:23.711Z,24.08
2016-07-26T00:15:23.704Z,24.08
2016-07-26T00:16:23.689Z,24.08
2016-07-26T00:17:23.672Z,24.09
2016-07-26T00:18:23.657Z,24.04
2016-07-26T00:19:23.644Z,24.12
2016-07-26T00:20:23.641Z,24.04
2016-07-26T00:21:22.905Z,24.02
2016-07-26T00:22:22.890Z,24.02
2016-07-26T00:23:23.588Z,24.05
2016-07-26T00:24:23.573Z,23.87
2016-07-26T00:25:23.552Z,23.93
2016-07-26T00:26:22.827Z,23.97
2016-07-26T00:27:23.530Z,23.93
2016-07-26T00:28:23.519Z,23.97
2016-07-26T00:29:22.791Z,23.97
2016-07-26T00:30:23.486Z,23.92
2016-07-26T00:31:23.465Z,23.92
2016-07-26T00:32:23.455Z,23.89
2016-07-26T00:33:23.445Z,23.89
2016-07-26T00:34:23.430Z,23.82
2016-07-26T00:35:23.408Z,23.9
2016-07-26T00:36:23.395Z,23.96
2016-07-26T00:37:23.389Z,23.89
2016-07-26T00:38:23.376Z,23.97
2016-07-26T00:39:23.357Z,23.96
2016-07-26T00:40:23.342Z,23.93
2016-07-26T00:41:23.331Z,23.9
2016-07-26T00:42:22.602Z,23.89
2016-07-26T00:43:21.882Z,23.96
2016-07-26T00:44:23.272Z,23.94
2016-07-26T00:45:23.273Z,23.9
2016-07-26T00:46:23.257Z,23.99
2016-07-26T00:47:23.242Z,23.94
2016-07-26T00:48:23.219Z,23.96
2016-07-26T00:49:22.499Z,23.9
2016-07-26T00:50:23.206Z,23.96
2016-07-26T00:51:23.181Z,23.94
2016-07-26T00:52:23.180Z,23.96
2016-07-26T00:53:23.149Z,23.96
2016-07-26T00:54:23.137Z,23.93
2016-07-26T00:55:23.119Z,23.89
2016-07-26T00:56:23.114Z,23.99
2016-07-26T00:57:23.088Z,23.94
2016-07-26T00:58:23.077Z,23.97
2016-07-26T00:59:22.350Z,23.92
2016-07-26T01:00:23.054Z,23.96
2016-07-26T01:01:22.346Z,23.87
2016-07-26T01:02:23.022Z,23.89
2016-07-26T01:03:23.004Z,23.93
2016-07-26T01:04:22.990Z,23.87
2016-07-26T01:05:22.996Z,23.79
2016-07-26T01:06:22.979Z,23.86
2016-07-26T01:07:22.952Z,23.79
2016-07-26T01:08:22.931Z,23.81
2016-07-26T01:09:22.915Z,23.81
2016-07-26T01:10:22.913Z,23.82
2016-07-26T01:11:22.891Z,23.79
2016-07-26T01:12:22.878Z,23.78
2016-07-26T01:13:22.855Z,23.77
2016-07-26T01:14:22.855Z,23.64
2016-07-26T01:15:22.829Z,23.68
2016-07-26T01:16:22.821Z,23.68
2016-07-26T01:17:22.808Z,23.68
2016-07-26T01:18:22.082Z,23.63
2016-07-26T01:19:22.782Z,23.64
2016-07-26T01:20:22.766Z,23.69
2016-07-26T01:21:22.739Z,23.62
2016-07-26T01:22:22.732Z,23.67
2016-07-26T01:23:22.722Z,23.62
2016-07-26T01:24:22.715Z,23.64
2016-07-26T01:25:22.697Z,23.69
2016-07-26T01:26:21.964Z,23.67
2016-07-26T01:27:22.662Z,23.62
2016-07-26T01:28:22.642Z,23.62
2016-07-26T01:29:22.629Z,23.69
2016-07-26T01:30:22.611Z,23.69
2016-07-26T01:31:22.606Z,23.64
2016-07-26T01:32:22.581Z,23.63
2016-07-26T01:33:22.573Z,23.69
2016-07-26T01:34:22.560Z,23.6
2016-07-26T01:35:22.559Z,23.67
2016-07-26T01:36:22.529Z,23.67
2016-07-26T01:37:22.531Z,23.63
2016-07-26T01:38:22.501Z,23.56
2016-07-26T01:39:22.494Z,23.57
2016-07-26T01:40:22.479Z,23.64
2016-07-26T01:41:22.461Z,23.6
2016-07-26T01:42:22.440Z,23.63
2016-07-26T01:43:22.433Z,23.56
2016-07-26T01:44:22.408Z,23.59
2016-07-26T01:45:22.403Z,23.62
2016-07-26T01:46:21.674Z,23.67
2016-07-26T01:47:21.656Z,23.63
2016-07-26T01:48:21.641Z,23.63
2016-07-26T01:49:22.342Z,23.63
2016-07-26T01:50:22.326Z,23.52
2016-07-26T01:51:22.317Z,23.52
2016-07-26T01:52:22.298Z,23.62
2016-07-26T01:53:22.286Z,23.6
2016-07-26T01:54:22.264Z,23.68
2016-07-26T01:55:22.257Z,23.59
2016-07-26T01:56:22.234Z,23.56
2016-07-26T01:57:22.227Z,23.63
2016-07-26T01:58:22.209Z,23.63
2016-07-26T01:59:22.201Z,23.53
2016-07-26T02:00:22.175Z,23.56
2016-07-26T02:01:22.176Z,23.62
2016-07-26T02:02:22.150Z,23.62
2016-07-26T02:03:22.139Z,23.57
2016-07-26T02:04:22.126Z,23.6
2016-07-26T02:05:22.105Z,23.6
2016-07-26T02:06:22.096Z,23.6
2016-07-26T02:07:22.076Z,23.67
2016-07-26T02:08:22.066Z,23.68
2016-07-26T02:09:22.048Z,23.62
2016-07-26T02:10:22.032Z,23.63
2016-07-26T02:11:22.024Z,23.62
2016-07-26T02:12:22.007Z,23.62
2016-07-26T02:13:21.989Z,23.6
2016-07-26T02:14:21.978Z,23.59
2016-07-26T02:15:21.956Z,23.54
2016-07-26T02:16:21.951Z,23.54
2016-07-26T02:17:21.933Z,23.56
2016-07-26T02:18:21.210Z,23.63
2016-07-26T02:19:21.897Z,23.57
2016-07-26T02:20:21.896Z,23.49
2016-07-26T02:21:21.876Z,23.6
2016-07-26T02:22:21.866Z,23.6
2016-07-26T02:23:21.850Z,23.53
2016-07-26T02:24:21.830Z,23.52
2016-07-26T02:25:21.818Z,23.57
2016-07-26T02:26:21.798Z,23.57
2016-07-26T02:27:21.784Z,23.6
2016-07-26T02:28:21.773Z,23.63
2016-07-26T02:29:21.755Z,23.53
2016-07-26T02:30:21.750Z,23.49
2016-07-26T02:31:21.724Z,23.44
2016-07-26T02:32:21.720Z,23.39
2016-07-26T02:33:21.712Z,23.47
2016-07-26T02:34:21.689Z,23.53
2016-07-26T02:35:21.660Z,23.45
2016-07-26T02:36:21.649Z,23.45
2016-07-26T02:37:20.931Z,23.45
2016-07-26T02:38:20.918Z,23.37
2016-07-26T02:39:21.624Z,23.39
2016-07-26T02:40:21.610Z,23.47
2016-07-26T02:41:21.582Z,23.39
2016-07-26T02:42:21.562Z,23.35
2016-07-26T02:43:21.551Z,23.42
2016-07-26T02:44:21.535Z,23.39
2016-07-26T02:45:21.519Z,23.39
2016-07-26T02:46:21.510Z,23.47
2016-07-26T02:47:21.489Z,23.35
2016-07-26T02:48:21.475Z,23.38
2016-07-26T02:49:21.491Z,23.41
2016-07-26T02:50:20.736Z,23.45
2016-07-26T02:51:20.728Z,23.5
2016-07-26T02:52:20.709Z,23.5
2016-07-26T02:53:21.398Z,23.5
2016-07-26T02:54:21.386Z,23.39
2016-07-26T02:55:21.378Z,23.44
2016-07-26T02:56:21.369Z,23.37
2016-07-26T02:57:21.351Z,23.41
2016-07-26T02:58:21.331Z,23.38
2016-07-26T02:59:21.312Z,23.37
2016-07-26T03:00:21.299Z,23.39
2016-07-26T03:01:21.284Z,23.41
2016-07-26T03:02:21.279Z,23.42
2016-07-26T03:03:21.256Z,23.34
2016-07-26T03:04:20.319Z,23.42
2016-07-26T03:05:21.226Z,23.41
2016-07-26T03:06:21.214Z,23.41
2016-07-26T03:07:21.198Z,23.45
2016-07-26T03:08:21.188Z,23.42
2016-07-26T03:09:21.183Z,23.49
2016-07-26T03:10:21.155Z,23.5
2016-07-26T03:11:21.141Z,23.45
2016-07-26T03:12:21.130Z,23.49
2016-07-26T03:13:20.405Z,23.44
2016-07-26T03:14:20.395Z,23.39
2016-07-26T03:15:21.088Z,23.38
2016-07-26T03:16:21.060Z,23.39
2016-07-26T03:17:21.047Z,23.38
2016-07-26T03:18:20.332Z,23.41
2016-07-26T03:20:21.003Z,23.29
2016-07-26T03:21:20.994Z,23.29
2016-07-26T03:22:20.977Z,23.37
2016-07-26T03:23:20.972Z,23.31
2016-07-26T03:24:20.942Z,23.25
2016-07-26T03:25:20.957Z,23.23
2016-07-26T03:26:20.923Z,23.23
2016-07-26T03:27:20.912Z,23.38
2016-07-26T03:28:20.885Z,23.31
2016-07-26T03:29:20.892Z,23.39
2016-07-26T03:30:20.868Z,23.34
2016-07-26T03:31:20.845Z,23.38
2016-07-26T03:32:20.831Z,23.39
2016-07-26T03:33:20.818Z,23.39
2016-07-26T03:35:20.793Z,23.38
2016-07-26T03:36:20.779Z,23.42
2016-07-26T03:37:20.759Z,23.39
2016-07-26T03:38:20.741Z,23.37
2016-07-26T03:39:20.734Z,23.39
2016-07-26T03:40:20.718Z,23.26
2016-07-26T03:41:20.694Z,23.23
2016-07-26T03:42:20.695Z,23.32
2016-07-26T03:43:20.671Z,23.23
2016-07-26T03:44:20.658Z,23.26
2016-07-26T03:45:20.641Z,23.31
2016-07-26T03:46:20.620Z,23.23
2016-07-26T03:47:20.618Z,23.14
2016-07-26T03:48:20.597Z,23.16
2016-07-26T03:50:20.578Z,23.16
2016-07-26T03:51:20.548Z,23.11
2016-07-26T03:52:20.548Z,23.12
2016-07-26T03:53:20.529Z,23.06
2016-07-26T03:54:19.088Z,23.07
2016-07-26T03:55:20.488Z,23.09
2016-07-26T03:56:20.474Z,23.03
2016-07-26T03:57:20.462Z,23.07
2016-07-26T03:58:20.454Z,23.06
2016-07-26T03:59:20.450Z,23.07
2016-07-26T04:00:20.418Z,23.07
2016-07-26T04:01:20.401Z,23.09
2016-07-26T04:02:20.384Z,23.07
2016-07-26T04:03:20.374Z,23.06
2016-07-26T04:05:20.342Z,23.07
2016-07-26T04:06:20.341Z,23.04
2016-07-26T04:07:20.317Z,23.09
2016-07-26T04:08:20.300Z,23.06
2016-07-26T04:09:20.292Z,23.14
2016-07-26T04:10:20.271Z,23.03
2016-07-26T04:11:20.253Z,23.01
2016-07-26T04:12:20.232Z,23.11
2016-07-26T04:13:19.516Z,23.11
2016-07-26T04:14:20.211Z,23.07
2016-07-26T04:15:20.190Z,23.18
2016-07-26T04:16:20.177Z,23.15
2016-07-26T04:17:20.171Z,23.06
2016-07-26T04:18:20.158Z,23.09
2016-07-26T04:20:19.412Z,23.07
2016-07-26T04:21:20.098Z,23.07
2016-07-26T04:22:20.097Z,23.12
2016-07-26T04:23:20.080Z,23.18
2016-07-26T04:24:20.067Z,23.04
2016-07-26T04:25:20.047Z,23.15
2016-07-26T04:26:20.034Z,23.09
2016-07-26T04:27:20.010Z,23.19
2016-07-26T04:28:20.009Z,23.16
2016-07-26T04:29:19.284Z,23.23
2016-07-26T04:30:19.976Z,23.31
2016-07-26T04:31:19.958Z,23.29
2016-07-26T04:32:19.945Z,23.21
2016-07-26T04:33:19.925Z,23.25
2016-07-26T04:35:19.897Z,23.22
2016-07-26T04:36:19.882Z,23.26
2016-07-26T04:37:19.162Z,23.21
2016-07-26T04:38:19.851Z,23.32
2016-07-26T04:39:19.839Z,23.23
2016-07-26T04:40:19.819Z,23.23
2016-07-26T04:41:19.095Z,23.21
2016-07-26T04:42:19.799Z,23.29
2016-07-26T04:43:19.785Z,23.25
2016-07-26T04:44:19.766Z,23.26
2016-07-26T04:45:19.754Z,23.21
2016-07-26T04:46:19.742Z,23.31
2016-07-26T04:47:19.715Z,23.29
2016-07-26T04:48:19.703Z,23.22
2016-07-26T04:50:19.669Z,23.26
2016-07-26T04:51:19.657Z,23.25
2016-07-26T04:52:19.647Z,23.23
2016-07-26T04:53:19.631Z,23.29
2016-07-26T04:54:19.612Z,23.15
2016-07-26T04:55:19.602Z,23.18
2016-07-26T04:56:19.590Z,23.21
2016-07-26T04:57:19.562Z,23.25
2016-07-26T04:58:19.556Z,23.31
2016-07-26T04:59:19.553Z,23.19
2016-07-26T05:00:18.815Z,23.15
2016-07-26T05:01:19.516Z,23.16
2016-07-26T05:02:19.501Z,23.21
2016-07-26T05:03:19.484Z,23.18
2016-07-26T05:05:19.455Z,23.14
2016-07-26T05:06:19.448Z,23.22
2016-07-26T05:07:19.424Z,23.16
2016-07-26T05:08:19.413Z,23.15
2016-07-26T05:09:19.388Z,23.18
2016-07-26T05:10:19.389Z,23.19
2016-07-26T05:11:19.363Z,23.16
2016-07-26T05:12:19.351Z,23.18
2016-07-26T05:13:19.337Z,23.09
2016-07-26T05:14:19.319Z,23
2016-07-26T05:15:19.313Z,23.09
2016-07-26T05:16:19.294Z,23.14
2016-07-26T05:17:19.266Z,23.18
2016-07-26T05:18:19.263Z,23.23
2016-07-26T05:20:19.236Z,23.18
2016-07-26T05:21:19.215Z,23.16
2016-07-26T05:22:19.203Z,23.31
2016-07-26T05:23:19.179Z,23.15
2016-07-26T05:24:19.174Z,23.15
2016-07-26T05:25:19.160Z,23.26
2016-07-26T05:26:18.437Z,23.18
2016-07-26T05:27:19.143Z,23.16
2016-07-26T05:28:19.119Z,23.11
2016-07-26T05:29:19.098Z,23
2016-07-26T05:30:19.093Z,23.15
2016-07-26T05:31:19.067Z,23.06
2016-07-26T05:32:19.055Z,23.09
2016-07-26T05:33:18.333Z,23.07
2016-07-26T05:34:19.038Z,23.18
2016-07-26T05:35:18.297Z,23.18
2016-07-26T05:36:18.991Z,23.32
2016-07-26T05:37:18.979Z,23.18
2016-07-26T05:38:18.964Z,23.18
2016-07-26T05:39:18.952Z,23.18
2016-07-26T05:40:18.932Z,23.22
2016-07-26T05:41:18.914Z,23.14
2016-07-26T05:42:18.901Z,23.06
2016-07-26T05:43:18.895Z,23.16
2016-07-26T05:44:18.879Z,23.12
2016-07-26T05:45:18.853Z,23.14
2016-07-26T05:46:18.134Z,23.26
2016-07-26T05:47:18.841Z,23.19
2016-07-26T05:48:18.809Z,23.29
2016-07-26T05:50:18.789Z,23.31
2016-07-26T05:51:18.775Z,23.29
2016-07-26T05:52:18.753Z,23.21
2016-07-26T05:53:18.732Z,23.31
2016-07-26T05:54:18.729Z,23.21
2016-07-26T05:55:18.706Z,23.34
2016-07-26T05:56:17.984Z,23.29
2016-07-26T05:57:18.689Z,23.22
2016-07-26T05:58:18.674Z,23.32
2016-07-26T05:59:18.647Z,23.29
2016-07-26T06:00:18.631Z,23.25
2016-07-26T06:01:18.631Z,23.37
2016-07-26T06:02:18.608Z,23.37
2016-07-26T06:03:18.590Z,23.26
2016-07-26T06:05:18.554Z,23.35
2016-07-26T06:06:17.841Z,23.29
2016-07-26T06:07:18.536Z,23.22
2016-07-26T06:08:18.514Z,23.25
2016-07-26T06:09:18.502Z,23.29
2016-07-26T06:10:18.484Z,23.26
2016-07-26T06:11:17.755Z,23.26
2016-07-26T06:12:18.459Z,23.26
2016-07-26T06:13:18.440Z,23.31
2016-07-26T06:14:18.428Z,23.26
2016-07-26T06:15:18.414Z,23.26
2016-07-26T06:16:17.688Z,23.26
2016-07-26T06:17:18.392Z,23.39
2016-07-26T06:18:18.364Z,23.38
2016-07-26T06:20:17.631Z,23.42
2016-07-26T06:21:18.322Z,23.34
2016-07-26T06:22:18.308Z,23.38
2016-07-26T06:23:18.303Z,23.37
2016-07-26T06:24:18.280Z,23.38
2016-07-26T06:25:18.261Z,23.38
2016-07-26T06:26:18.249Z,23.34
2016-07-26T06:27:18.230Z,23.41
2016-07-26T06:28:18.219Z,23.34
2016-07-26T06:29:18.193Z,23.41
2016-07-26T06:30:18.207Z,23.41
2016-07-26T06:31:18.179Z,23.37
2016-07-26T06:32:18.163Z,23.29
2016-07-26T06:33:18.140Z,23.34
2016-07-26T06:35:17.404Z,23.45
2016-07-26T06:36:18.109Z,23.38
2016-07-26T06:37:18.090Z,23.39
2016-07-26T06:38:18.064Z,23.39
2016-07-26T06:39:18.050Z,23.39
2016-07-26T06:40:18.037Z,23.47
2016-07-26T06:41:18.019Z,23.47
2016-07-26T06:42:18.016Z,23.49
2016-07-26T06:43:17.995Z,23.44
2016-07-26T06:44:17.273Z,23.44
2016-07-26T06:45:17.966Z,23.39
2016-07-26T06:46:17.948Z,23.32
2016-07-26T06:47:17.936Z,23.39
2016-07-26T06:48:17.921Z,23.44
2016-07-26T06:50:17.898Z,23.42
2016-07-26T06:51:17.875Z,23.44
2016-07-26T06:52:17.863Z,23.44
2016-07-26T06:53:17.848Z,23.39
2016-07-26T06:54:17.831Z,23.42
2016-07-26T06:55:17.102Z,23.45
2016-07-26T06:56:17.105Z,23.5
2016-07-26T06:57:17.786Z,23.47
2016-07-26T06:58:17.778Z,23.41
2016-07-26T06:59:17.758Z,23.34
2016-07-26T07:00:17.737Z,23.38
2016-07-26T07:01:17.741Z,23.41
2016-07-26T07:02:17.709Z,23.41
2016-07-26T07:03:17.695Z,23.47
2016-07-26T07:05:17.671Z,23.42
2016-07-26T07:06:17.650Z,23.54
2016-07-26T07:07:17.640Z,23.54
2016-07-26T07:08:17.620Z,23.56
2016-07-26T07:09:17.606Z,23.53
2016-07-26T07:10:17.595Z,23.54
2016-07-26T07:11:16.875Z,23.6
2016-07-26T07:12:17.563Z,23.59
2016-07-26T07:13:16.836Z,23.64
2016-07-26T07:14:17.541Z,23.64
2016-07-26T07:15:17.519Z,23.57
2016-07-26T07:16:17.499Z,23.69
2016-07-26T07:17:16.786Z,23.69
2016-07-26T07:18:17.464Z,23.69
2016-07-26T07:20:17.441Z,23.63
2016-07-26T07:21:17.433Z,23.67
2016-07-26T07:22:17.426Z,23.67
2016-07-26T07:23:17.398Z,23.78
2016-07-26T07:24:17.386Z,23.75
2016-07-26T07:25:17.371Z,23.67
2016-07-26T07:26:17.349Z,23.64
2016-07-26T07:27:17.343Z,23.6
2016-07-26T07:28:17.318Z,23.68
2016-07-26T07:29:17.315Z,23.59
2016-07-26T07:30:17.298Z,23.57
2016-07-26T07:31:17.294Z,23.64
2016-07-26T07:32:16.559Z,23.56
2016-07-26T07:33:17.251Z,23.64
2016-07-26T07:34:16.521Z,23.57
2016-07-26T07:35:17.226Z,23.69
2016-07-26T07:36:17.211Z,23.69
2016-07-26T07:37:17.194Z,23.6
2016-07-26T07:38:17.190Z,23.56
2016-07-26T07:39:17.165Z,23.57
2016-07-26T07:40:17.148Z,23.57
2016-07-26T07:41:16.420Z,23.6
2016-07-26T07:42:17.113Z,23.56
2016-07-26T07:43:17.104Z,23.62
2016-07-26T07:44:17.087Z,23.56
2016-07-26T07:45:17.077Z,23.53
2016-07-26T07:46:17.061Z,23.42
2016-07-26T07:47:17.044Z,23.04
2016-07-26T07:48:17.029Z,23.09
2016-07-26T07:49:17.015Z,23.07
2016-07-26T07:50:17.004Z,23.15
2016-07-26T07:51:16.284Z,23.14
2016-07-26T07:52:16.987Z,23.25
2016-07-26T07:53:16.945Z,23.31
2016-07-26T07:54:16.227Z,23.42
2016-07-26T07:55:16.921Z,23.53
2016-07-26T07:56:16.205Z,23.47
2016-07-26T07:57:16.188Z,23.6
2016-07-26T07:58:16.162Z,23.57
2016-07-26T07:59:16.866Z,23.6
2016-07-26T08:00:16.861Z,23.68
2016-07-26T08:01:16.834Z,23.56
2016-07-26T08:02:16.821Z,23.64
2016-07-26T08:03:16.810Z,23.41
2016-07-26T08:04:16.076Z,23.5
2016-07-26T08:05:16.778Z,23.6
2016-07-26T08:06:16.760Z,23.57
2016-07-26T08:07:16.751Z,23.53
2016-07-26T08:08:16.730Z,23.56
2016-07-26T08:09:16.722Z,23.52
2016-07-26T08:10:15.987Z,23.63
2016-07-26T08:11:16.688Z,23.67
2016-07-26T08:12:16.670Z,23.69
2016-07-26T08:13:16.646Z,23.63
2016-07-26T08:14:16.640Z,23.68
2016-07-26T08:15:16.621Z,23.63
2016-07-26T08:16:15.895Z,23.62
2016-07-26T08:17:16.592Z,23.62
2016-07-26T08:18:16.577Z,23.62
2016-07-26T08:19:16.560Z,23.71
2016-07-26T08:20:16.554Z,23.63
2016-07-26T08:21:16.534Z,23.62
